Time;durP1;ratioP1;P1;durP2;ratioP2;P2;SDS_P1;SDS_P2;PMS_P1;PMS_P2;Temp;Humidity;BMP_temperature;BMP_pressure;BME280_temperature;BME280_humidity;BME280_pressure;Samples;Min_cycle;Max_cycle;Signal;HPM_P1;HPM_P2
2020/12/14 00:00:33;;;;;;;9.93;7.68;;;;;;;5.63;75.95;95511.50;5052909;28;20497;-45
2020/12/14 00:03:00;;;;;;;8.70;6.90;;;;;;;5.71;75.53;95518.00;5053149;28;20048;-45
2020/12/14 00:05:26;;;;;;;10.80;7.88;;;;;;;5.70;75.58;95506.47;5052299;28;20124;-46
2020/12/14 00:07:53;;;;;;;8.98;7.10;;;;;;;5.79;74.86;95511.88;5052707;28;20055;-48
2020/12/14 00:10:20;;;;;;;10.05;7.53;;;;;;;5.75;75.14;95505.53;5052803;28;20124;-46
2020/12/14 00:12:47;;;;;;;9.18;7.03;;;;;;;5.73;74.91;95513.13;5052833;28;20056;-50
2020/12/14 00:15:13;;;;;;;10.55;7.68;;;;;;;5.67;75.06;95501.72;5052640;28;20528;-47
2020/12/14 00:17:39;;;;;;;9.38;6.95;;;;;;;5.67;75.37;95506.31;5051749;28;20053;-47
2020/12/14 00:20:06;;;;;;;8.95;6.85;;;;;;;5.73;74.81;95508.53;5052490;28;20045;-44
2020/12/14 00:22:33;;;;;;;8.15;6.47;;;;;;;5.71;74.96;95500.00;5052319;28;20048;-44
2020/12/14 00:25:01;;;;;;;8.88;6.65;;;;;;;5.54;75.19;95497.25;5052589;28;20573;-45
2020/12/14 00:27:27;;;;;;;8.15;6.10;;;;;;;5.53;75.34;95493.00;5051519;28;20580;-44
2020/12/14 00:30:05;;;;;;;9.10;6.82;;;;;;;5.53;75.19;95496.47;5052848;28;20053;-48
2020/12/14 00:32:32;;;;;;;8.52;6.82;;;;;;;5.62;74.84;95496.47;5053045;28;20075;-47
2020/12/14 00:34:58;;;;;;;7.82;6.25;;;;;;;5.63;75.10;95508.81;5052176;28;20045;-47
2020/12/14 00:37:25;;;;;;;8.48;6.15;;;;;;;5.71;74.65;95513.41;5051642;28;20119;-46
2020/12/14 00:39:51;;;;;;;8.57;6.68;;;;;;;5.75;74.63;95503.66;5051519;28;20055;-48
2020/12/14 00:42:17;;;;;;;7.18;5.55;;;;;;;5.53;73.84;95476.91;5052160;28;20060;-47
2020/12/14 00:44:44;;;;;;;7.78;6.13;;;;;;;5.59;74.41;95500.59;5052062;28;20145;-48
2020/12/14 00:47:10;;;;;;;7.97;6.05;;;;;;;5.43;75.16;95496.75;5051045;28;20107;-47
2020/12/14 00:49:37;;;;;;;9.10;6.97;;;;;;;5.49;75.19;95487.47;5050676;28;20076;-50
2020/12/14 00:52:04;;;;;;;8.50;6.28;;;;;;;5.58;74.67;95492.84;5051847;28;20056;-49
2020/12/14 00:54:33;;;;;;;8.05;6.32;;;;;;;5.48;75.14;95485.06;5051951;28;20049;-50
2020/12/14 00:57:00;;;;;;;8.60;6.30;;;;;;;5.52;74.74;95488.72;5050972;28;20049;-50
2020/12/14 00:59:26;;;;;;;9.02;7.00;;;;;;;5.51;74.86;95495.97;5051875;28;20127;-49
2020/12/14 01:01:54;;;;;;;7.88;6.63;;;;;;;5.62;74.48;95496.47;5051636;28;20049;-49
2020/12/14 01:04:21;;;;;;;8.05;6.18;;;;;;;5.48;74.49;95493.13;5051772;28;20052;-48
2020/12/14 01:06:52;;;;;;;8.25;6.55;;;;;;;5.36;74.96;95502.56;5050822;28;20055;-51
2020/12/14 01:09:20;;;;;;;7.68;6.28;;;;;;;5.46;74.71;95512.25;5051437;28;20051;-49
2020/12/14 01:11:47;;;;;;;8.18;6.32;;;;;;;5.43;74.97;95515.53;5051566;28;20132;-47
2020/12/14 01:14:13;;;;;;;9.18;6.90;;;;;;;5.52;74.35;95515.56;5050489;28;20080;-45
2020/12/14 01:16:39;;;;;;;9.35;6.50;;;;;;;5.48;74.68;95528.00;5050593;28;20045;-45
2020/12/14 01:19:06;;;;;;;9.68;7.28;;;;;;;5.66;73.98;95523.53;5051173;28;20045;-45
2020/12/14 01:21:32;;;;;;;7.57;5.75;;;;;;;5.50;74.00;95531.97;5051567;28;20052;-44
2020/12/14 01:23:58;;;;;;;7.30;5.45;;;;;;;5.55;73.84;95531.81;5051432;28;20530;-44
2020/12/14 01:26:25;;;;;;;9.77;5.65;;;;;;;5.48;74.31;95546.78;5050859;28;20087;-48
2020/12/14 01:28:51;;;;;;;8.05;6.20;;;;;;;5.56;74.16;95548.75;5050973;28;20056;-49
2020/12/14 01:31:17;;;;;;;8.38;5.82;;;;;;;5.48;74.16;95549.47;5051011;28;20447;-45
2020/12/14 01:33:44;;;;;;;8.27;5.95;;;;;;;5.62;73.66;95542.94;5051425;28;20113;-44
2020/12/14 01:36:10;;;;;;;8.35;6.05;;;;;;;5.78;73.45;95550.53;5050756;28;20049;-44
2020/12/14 01:38:36;;;;;;;8.45;6.30;;;;;;;5.78;73.32;95545.97;5051536;28;20393;-45
2020/12/14 01:41:03;;;;;;;8.15;5.38;;;;;;;5.78;73.24;95529.06;5051142;28;20057;-44
2020/12/14 01:43:29;;;;;;;6.53;4.47;;;;;;;5.62;73.22;95505.34;5051059;28;20052;-43
2020/12/14 01:45:56;;;;;;;7.55;5.40;;;;;;;5.62;73.49;95504.53;5050338;28;20045;-45
2020/12/14 01:48:24;;;;;;;7.93;5.53;;;;;;;5.56;73.93;95505.81;5050735;28;20059;-45
2020/12/14 01:50:52;;;;;;;7.38;5.63;;;;;;;5.45;74.58;95507.16;5051167;28;20087;-44
2020/12/14 01:53:21;;;;;;;9.07;6.78;;;;;;;5.46;74.46;95489.94;5055272;28;20429;-44
2020/12/14 01:55:53;;;;;;;8.32;5.90;;;;;;;5.49;73.99;95478.59;5054590;28;20136;-45
2020/12/14 01:58:21;;;;;;;8.68;6.18;;;;;;;5.27;74.95;95492.91;5053838;28;20049;-46
2020/12/14 02:00:47;;;;;;;8.30;6.20;;;;;;;5.31;75.00;95497.31;5054894;28;20060;-45
2020/12/14 02:03:14;;;;;;;8.27;6.00;;;;;;;5.18;75.19;95482.13;5053800;28;20114;-44
2020/12/14 02:05:40;;;;;;;8.23;5.88;;;;;;;5.19;75.40;95480.22;5052942;28;20137;-46
2020/12/14 02:08:08;;;;;;;10.13;6.55;;;;;;;5.25;75.34;95495.88;5054656;28;20057;-46
2020/12/14 02:10:35;;;;;;;9.65;6.45;;;;;;;5.37;75.00;95485.38;5054939;28;20141;-44
2020/12/14 02:13:02;;;;;;;9.43;6.50;;;;;;;5.35;74.97;95484.88;5054830;28;20156;-47
2020/12/14 02:15:29;;;;;;;9.43;6.43;;;;;;;5.16;75.39;95465.53;5054567;28;20049;-49
2020/12/14 02:17:55;;;;;;;9.30;6.75;;;;;;;5.31;74.96;95475.88;5053580;28;20440;-45
2020/12/14 02:20:22;;;;;;;11.00;7.80;;;;;;;5.20;75.16;95471.06;5055231;28;20045;-45
2020/12/14 02:22:48;;;;;;;10.73;7.55;;;;;;;5.15;75.45;95467.44;5054734;28;20055;-45
2020/12/14 02:25:14;;;;;;;10.50;7.35;;;;;;;5.09;75.22;95462.50;5054790;28;20187;-47
2020/12/14 02:27:42;;;;;;;11.25;7.72;;;;;;;5.06;75.21;95471.16;5054470;28;20091;-47
2020/12/14 02:30:09;;;;;;;12.32;8.95;;;;;;;4.91;75.96;95481.19;5054550;28;20147;-47
2020/12/14 02:32:35;;;;;;;12.25;8.57;;;;;;;5.00;75.80;95472.41;5054586;28;20473;-47
2020/12/14 02:35:01;;;;;;;13.05;8.40;;;;;;;5.07;75.66;95478.09;5054318;28;20480;-45
2020/12/14 02:37:31;;;;;;;14.30;9.65;;;;;;;5.13;74.98;95482.25;5053477;28;20069;-45
2020/12/14 02:39:57;;;;;;;13.23;9.38;;;;;;;5.23;74.54;95486.53;5054236;28;20395;-46
2020/12/14 02:42:25;;;;;;;13.43;8.93;;;;;;;5.34;74.23;95480.63;5054219;28;20498;-44
2020/12/14 02:44:53;;;;;;;12.88;8.50;;;;;;;5.45;73.20;95488.38;5053145;28;20049;-45
2020/12/14 02:47:20;;;;;;;12.38;8.40;;;;;;;5.46;73.24;95481.91;5053266;28;20137;-45
2020/12/14 02:49:46;;;;;;;14.70;9.88;;;;;;;5.44;73.29;95476.06;5054133;28;20128;-52
2020/12/14 02:52:13;;;;;;;13.20;8.63;;;;;;;5.43;73.45;95482.53;5053960;28;20045;-48
2020/12/14 02:54:41;;;;;;;13.30;9.73;;;;;;;5.50;72.72;95488.25;5053849;28;20371;-50
2020/12/14 02:57:09;;;;;;;17.90;9.88;;;;;;;5.50;72.89;95504.34;5053281;28;20136;-51
2020/12/14 02:59:35;;;;;;;15.02;9.52;;;;;;;5.38;72.71;95508.41;5053934;28;20100;-48
2020/12/14 03:02:02;;;;;;;14.80;10.05;;;;;;;5.35;72.99;95494.81;5053803;28;20537;-48
2020/12/14 03:04:29;;;;;;;14.75;9.65;;;;;;;5.36;72.83;95491.03;5053140;28;20049;-50
2020/12/14 03:06:55;;;;;;;14.57;9.82;;;;;;;5.05;74.12;95486.47;5052947;28;20049;-48
2020/12/14 03:09:21;;;;;;;15.02;9.93;;;;;;;4.97;74.70;95479.16;5053695;28;20147;-49
2020/12/14 03:11:49;;;;;;;14.15;9.98;;;;;;;4.98;74.32;95488.00;5053815;28;20048;-46
2020/12/14 03:14:16;;;;;;;14.10;9.70;;;;;;;4.99;74.11;95495.75;5053619;28;20447;-48
2020/12/14 03:16:50;;;;;;;15.20;9.60;;;;;;;4.82;74.39;95495.63;5053031;28;20075;-49
2020/12/14 03:19:18;;;;;;;16.60;9.95;;;;;;;4.67;74.46;95491.44;5053624;28;20578;-51
2020/12/14 03:21:46;;;;;;;13.32;9.45;;;;;;;4.58;74.68;95504.78;5053183;28;20041;-49
2020/12/14 03:24:13;;;;;;;13.90;9.63;;;;;;;4.44;75.20;95499.47;5053324;28;20057;-48
2020/12/14 03:26:39;;;;;;;14.00;10.60;;;;;;;4.49;74.98;95501.25;5052533;28;20041;-49
2020/12/14 03:29:07;;;;;;;15.15;10.23;;;;;;;4.47;74.77;95487.34;5053295;28;20420;-48
2020/12/14 03:31:33;;;;;;;14.88;9.60;;;;;;;4.34;75.33;95478.28;5053241;28;20098;-50
2020/12/14 03:34:00;;;;;;;14.50;10.05;;;;;;;4.15;75.64;95462.38;5053025;28;20497;-46
2020/12/14 03:36:27;;;;;;;16.27;10.80;;;;;;;4.19;75.71;95475.94;5051429;28;20159;-48
2020/12/14 03:38:54;;;;;;;16.45;10.10;;;;;;;4.15;76.11;95480.31;5053228;28;20506;-51
2020/12/14 03:41:23;;;;;;;16.17;11.10;;;;;;;4.08;76.30;95482.63;5053220;28;20053;-51
2020/12/14 03:43:51;;;;;;;16.10;10.00;;;;;;;4.13;75.84;95487.88;5053080;28;20057;-53
2020/12/14 03:46:21;;;;;;;15.23;10.68;;;;;;;4.18;75.45;95485.06;5052854;28;20045;-55
2020/12/14 03:48:55;;;;;;;14.82;10.70;;;;;;;4.25;75.16;95488.13;5052953;28;20054;-52
2020/12/14 03:51:23;;;;;;;14.20;9.77;;;;;;;4.27;75.08;95487.84;5053048;28;20079;-50
2020/12/14 03:53:50;;;;;;;15.50;10.40;;;;;;;4.21;74.89;95487.94;5052799;28;20506;-49
2020/12/14 03:56:23;;;;;;;15.45;11.07;;;;;;;4.21;74.95;95489.81;5051953;28;20052;-51
2020/12/14 03:58:51;;;;;;;15.43;10.82;;;;;;;4.16;74.93;95495.28;5052835;28;20061;-49
2020/12/14 04:01:19;;;;;;;16.20;9.98;;;;;;;4.05;75.36;95499.28;5052555;28;20505;-50
2020/12/14 04:03:46;;;;;;;19.20;10.90;;;;;;;4.10;75.21;95499.97;5051381;28;20045;-49
2020/12/14 04:06:20;;;;;;;14.45;10.15;;;;;;;4.12;75.26;95505.00;5051792;28;20053;-52
2020/12/14 04:08:48;;;;;;;15.60;10.50;;;;;;;4.13;74.95;95501.25;5052219;28;20045;-50
2020/12/14 04:11:14;;;;;;;13.70;8.98;;;;;;;4.03;74.62;95480.03;5052517;28;20076;-49
2020/12/14 04:13:41;;;;;;;14.80;9.50;;;;;;;4.19;74.29;95492.00;5051052;28;20110;-50
2020/12/14 04:16:09;;;;;;;11.77;9.00;;;;;;;4.14;74.49;95494.81;5050764;28;20362;-52
2020/12/14 04:18:36;;;;;;;14.45;9.70;;;;;;;4.26;73.72;95492.41;5052255;28;20080;-51
2020/12/14 04:21:04;;;;;;;12.55;9.02;;;;;;;4.13;74.13;95494.03;5052285;28;20056;-50
2020/12/14 04:23:31;;;;;;;13.90;9.32;;;;;;;3.98;74.32;95492.44;5052266;28;20049;-44
2020/12/14 04:25:57;;;;;;;14.00;9.35;;;;;;;3.88;74.98;95492.69;5051559;28;20136;-44
2020/12/14 04:28:24;;;;;;;14.35;9.88;;;;;;;4.06;74.28;95498.19;5051962;28;20293;-50
2020/12/14 04:30:51;;;;;;;14.30;10.20;;;;;;;3.97;74.46;95485.53;5052309;28;20053;-52
2020/12/14 04:33:19;;;;;;;13.70;9.23;;;;;;;4.09;74.20;95497.59;5050888;28;20072;-48
2020/12/14 04:35:45;;;;;;;14.48;9.73;;;;;;;4.05;74.14;95493.94;5051388;28;20057;-44
2020/12/14 04:38:12;;;;;;;14.07;9.93;;;;;;;4.01;74.25;95490.28;5052170;28;20048;-43
2020/12/14 04:40:38;;;;;;;13.23;9.45;;;;;;;3.94;74.73;95498.72;5051933;28;20059;-49
2020/12/14 04:43:07;;;;;;;13.30;9.50;;;;;;;3.86;74.75;95489.50;5052135;28;20049;-45
2020/12/14 04:45:34;;;;;;;14.57;9.75;;;;;;;3.89;74.47;95499.59;5051080;28;20057;-51
2020/12/14 04:48:01;;;;;;;14.35;10.15;;;;;;;3.82;74.65;95509.13;5051645;28;20068;-49
2020/12/14 04:50:27;;;;;;;14.93;9.90;;;;;;;3.88;74.00;95503.38;5051744;28;20110;-52
2020/12/14 04:52:54;;;;;;;13.52;9.23;;;;;;;3.91;73.80;95502.00;5051890;28;20517;-48
2020/12/14 04:55:23;;;;;;;14.02;9.80;;;;;;;4.00;73.34;95505.56;5051030;28;20049;-48
2020/12/14 04:57:51;;;;;;;14.57;9.98;;;;;;;3.90;73.41;95500.38;5051515;28;20076;-50
2020/12/14 05:00:20;;;;;;;13.85;9.90;;;;;;;3.93;73.32;95499.78;5051607;28;20413;-49
2020/12/14 05:02:57;;;;;;;16.48;9.95;;;;;;;3.87;73.64;95493.78;5050359;28;20064;-48
2020/12/14 05:05:24;;;;;;;12.95;9.43;;;;;;;3.88;73.34;95487.31;5050967;28;20098;-49
2020/12/14 05:07:51;;;;;;;12.18;8.73;;;;;;;3.80;73.62;95488.00;5051551;28;20469;-50
2020/12/14 05:10:26;;;;;;;13.38;9.25;;;;;;;3.79;73.99;95489.13;5050144;28;20045;-48
2020/12/14 05:12:53;;;;;;;12.23;8.45;;;;;;;3.68;73.98;95483.19;5050580;28;20057;-51
2020/12/14 05:15:29;;;;;;;12.73;7.82;;;;;;;3.61;74.02;95485.47;5050699;28;20577;-48
2020/12/14 05:18:16;;;;;;;11.45;7.75;;;;;;;3.48;74.26;95487.06;5051391;28;20293;-50
2020/12/14 05:21:01;;;;;;;9.82;7.00;;;;;;;3.40;74.92;95498.44;5051291;28;20056;-50
2020/12/14 05:23:32;;;;;;;9.52;6.93;;;;;;;3.44;74.76;95483.38;5051474;28;20079;-50
2020/12/14 05:26:09;;;;;;;10.23;7.45;;;;;;;3.47;74.63;95498.84;5050295;28;20132;-52
2020/12/14 05:28:36;;;;;;;10.73;7.45;;;;;;;3.53;74.45;95493.41;5051113;28;20076;-48
2020/12/14 05:31:03;;;;;;;12.27;8.65;;;;;;;3.62;73.72;95491.63;5051563;28;20063;-48
2020/12/14 05:33:31;;;;;;;12.35;8.05;;;;;;;3.64;73.22;95495.59;5050983;28;20449;-49
2020/12/14 05:35:58;;;;;;;12.25;7.88;;;;;;;3.67;72.81;95496.84;5049143;28;20139;-49
2020/12/14 05:38:26;;;;;;;12.63;8.50;;;;;;;3.68;72.69;95495.78;5051023;28;20049;-49
2020/12/14 05:40:54;;;;;;;11.10;8.23;;;;;;;3.66;72.86;95490.72;5051093;28;20055;-49
2020/12/14 05:43:22;;;;;;;11.18;8.00;;;;;;;3.62;73.02;95492.41;5050967;28;20059;-48
2020/12/14 05:45:50;;;;;;;13.68;8.30;;;;;;;3.63;73.11;95496.66;5050474;28;20468;-50
2020/12/14 05:48:30;;;;;;;12.32;8.38;;;;;;;3.65;72.96;95491.03;5062630;22;20497;-47
2020/12/14 05:50:59;;;;;;;12.98;8.20;;;;;;;3.36;73.41;95477.97;5035280;28;20391;-48
2020/12/14 05:53:34;;;;;;;11.82;8.52;;;;;;;3.50;73.53;95495.56;5051444;28;20049;-45
2020/12/14 05:56:02;;;;;;;13.07;7.63;;;;;;;3.49;73.17;95494.00;5050861;28;20084;-47
2020/12/14 05:58:31;;;;;;;11.73;7.90;;;;;;;3.46;73.35;95504.50;5051573;28;20091;-47
2020/12/14 06:01:01;;;;;;;12.10;8.05;;;;;;;3.41;73.31;95502.72;5051414;28;20124;-48
2020/12/14 06:03:28;;;;;;;12.10;8.07;;;;;;;3.51;73.02;95507.09;5050456;28;20049;-47
2020/12/14 06:06:02;;;;;;;12.40;8.43;;;;;;;3.51;72.92;95501.75;5050723;28;20128;-48
2020/12/14 06:08:46;;;;;;;11.63;8.18;;;;;;;3.57;72.59;95503.19;5051219;28;20041;-47
2020/12/14 06:11:14;;;;;;;11.23;7.60;;;;;;;3.47;72.69;95498.06;5051823;28;20126;-48
2020/12/14 06:13:54;;;;;;;11.38;7.93;;;;;;;3.44;72.93;95494.06;5050159;28;20140;-47
2020/12/14 06:16:21;;;;;;;11.48;7.28;;;;;;;3.41;72.66;95502.72;5050596;28;20080;-47
2020/12/14 06:18:49;;;;;;;12.05;8.20;;;;;;;3.07;72.91;95467.53;5051605;28;20073;-46
2020/12/14 06:21:20;;;;;;;14.73;8.57;;;;;;;3.23;73.24;95506.25;5051835;28;20076;-51
2020/12/14 06:23:49;;;;;;;9.95;7.32;;;;;;;3.21;73.53;95511.88;5051682;28;20037;-47
2020/12/14 06:26:20;;;;;;;13.98;9.63;;;;;;;3.17;74.10;95510.91;5050860;28;20505;-47
2020/12/14 06:28:54;;;;;;;12.48;8.80;;;;;;;2.93;73.88;95462.19;5050862;28;20049;-47
2020/12/14 06:31:49;;;;;;;;;;;;;;;3.40;73.22;95514.50;5051599;28;20049;-47
2020/12/14 06:34:31;;;;;;;13.75;9.57;;;;;;;3.34;73.32;95515.66;5046358;28;19920;-47
2020/12/14 06:36:59;;;;;;;16.92;10.27;;;;;;;3.22;73.53;95516.16;5050261;28;20128;-49
2020/12/14 06:39:25;;;;;;;15.73;10.73;;;;;;;3.10;73.82;95509.72;5053478;28;20152;-47
2020/12/14 06:41:53;;;;;;;16.17;10.02;;;;;;;3.12;73.82;95516.34;5054669;28;20077;-47
2020/12/14 06:44:19;;;;;;;15.32;10.68;;;;;;;3.10;73.49;95523.06;5054906;28;20114;-47
2020/12/14 06:46:47;;;;;;;17.45;11.60;;;;;;;2.90;74.54;95519.66;5054007;28;20498;-49
2020/12/14 06:49:29;;;;;;;17.38;12.02;;;;;;;2.68;75.42;95498.13;5054536;28;20139;-49
2020/12/14 06:51:55;;;;;;;19.27;11.55;;;;;;;2.55;75.98;95505.78;5053294;28;20103;-50
2020/12/14 06:54:45;;;;;;;18.05;11.80;;;;;;;2.69;75.94;95505.84;5054646;28;20065;-48
2020/12/14 06:57:13;;;;;;;19.65;12.18;;;;;;;2.70;75.45;95495.97;5053528;28;20106;-49
2020/12/14 06:59:53;;;;;;;20.30;12.90;;;;;;;2.64;75.72;95507.81;5054437;28;20052;-45
2020/12/14 07:02:35;;;;;;;19.55;13.48;;;;;;;2.73;75.75;95516.72;5053042;28;20434;-46
2020/12/14 07:05:03;;;;;;;19.85;12.77;;;;;;;2.73;75.27;95509.53;5055058;28;20060;-44
2020/12/14 07:07:31;;;;;;;17.63;11.88;;;;;;;2.76;75.22;95511.63;5055152;28;20444;-44
2020/12/14 07:10:14;;;;;;;15.20;10.43;;;;;;;2.92;74.81;95520.16;5055092;28;20487;-44
2020/12/14 07:12:45;;;;;;;15.82;10.38;;;;;;;2.93;74.53;95518.28;5054323;28;20077;-48
2020/12/14 07:15:32;;;;;;;14.32;10.30;;;;;;;2.98;74.41;95521.66;5054011;28;20092;-50
2020/12/14 07:18:09;;;;;;;16.08;9.77;;;;;;;2.94;74.67;95522.53;5053849;28;20124;-47
2020/12/14 07:20:52;;;;;;;16.25;9.95;;;;;;;2.96;74.36;95523.06;5053981;28;20057;-48
2020/12/14 07:23:22;;;;;;;16.00;10.38;;;;;;;2.65;74.75;95485.34;5053872;28;20447;-45
2020/12/14 07:25:48;;;;;;;15.95;10.23;;;;;;;2.93;74.69;95521.75;5053182;28;20045;-48
2020/12/14 07:28:15;;;;;;;18.02;11.43;;;;;;;2.88;74.83;95519.16;5052715;28;20045;-46
2020/12/14 07:30:42;;;;;;;17.42;11.45;;;;;;;2.78;75.36;95520.13;5053837;28;20052;-47
2020/12/14 07:33:09;;;;;;;15.95;10.13;;;;;;;2.87;75.46;95528.28;5053684;28;20488;-50
2020/12/14 07:35:38;;;;;;;16.50;10.30;;;;;;;2.94;75.20;95522.53;5052258;28;20083;-49
2020/12/14 07:38:10;;;;;;;17.63;11.25;;;;;;;3.11;74.54;95522.78;5054198;28;20045;-49
2020/12/14 07:40:37;;;;;;;16.67;10.60;;;;;;;3.08;74.57;95523.34;5053762;28;20497;-49
2020/12/14 07:43:03;;;;;;;16.00;10.18;;;;;;;2.98;74.77;95516.31;5053931;28;20417;-47
2020/12/14 07:45:29;;;;;;;13.98;10.27;;;;;;;3.06;74.76;95528.22;5053205;28;20111;-54
2020/12/14 07:47:56;;;;;;;14.82;10.23;;;;;;;3.07;74.92;95534.34;5053525;28;20385;-49
2020/12/14 07:50:25;;;;;;;13.95;9.57;;;;;;;3.14;74.72;95537.44;5035833;28;20072;-46
2020/12/14 07:52:55;;;;;;;11.63;8.75;;;;;;;3.27;74.44;95532.09;5053723;28;20052;-46
2020/12/14 07:55:23;;;;;;;13.82;9.27;;;;;;;3.23;74.50;95536.47;5052951;28;20049;-45
2020/12/14 07:57:51;;;;;;;13.88;9.50;;;;;;;3.14;74.63;95529.41;5053332;28;20146;-44
2020/12/14 08:00:23;;;;;;;13.68;8.43;;;;;;;3.26;74.47;95535.09;5051980;28;20076;-46
2020/12/14 08:02:50;;;;;;;13.93;8.35;;;;;;;3.28;74.17;95516.84;5052929;28;20049;-46
2020/12/14 08:05:19;;;;;;;11.80;8.15;;;;;;;3.35;74.27;95533.31;5052944;28;20061;-47
2020/12/14 08:07:48;;;;;;;12.63;8.43;;;;;;;3.51;73.57;95536.50;5052726;28;20501;-49
2020/12/14 08:10:34;;;;;;;13.77;8.15;;;;;;;3.63;73.45;95544.03;5053076;28;20053;-49
2020/12/14 08:13:13;;;;;;;11.85;7.90;;;;;;;3.68;73.33;95538.59;5053104;28;20061;-50
2020/12/14 08:15:53;;;;;;;9.63;6.97;;;;;;;3.62;73.36;95542.44;5052220;28;20059;-51
2020/12/14 08:18:20;;;;;;;9.60;7.25;;;;;;;3.73;73.08;95539.25;5052550;28;20238;-46
2020/12/14 08:20:47;;;;;;;11.10;7.30;;;;;;;3.88;72.40;95534.72;5052987;28;20136;-49
2020/12/14 08:23:18;;;;;;;10.10;6.75;;;;;;;3.88;72.44;95532.81;5052803;28;20128;-47
2020/12/14 08:25:46;;;;;;;11.20;7.03;;;;;;;3.87;72.40;95536.59;5051976;28;20056;-47
2020/12/14 08:28:13;;;;;;;10.63;6.85;;;;;;;3.94;72.24;95531.63;5051431;28;20516;-51
2020/12/14 08:30:40;;;;;;;11.13;7.32;;;;;;;3.93;72.08;95532.72;5052629;28;20072;-46
2020/12/14 08:33:16;;;;;;;10.10;6.63;;;;;;;4.03;71.85;95539.75;5051694;28;20048;-47
2020/12/14 08:35:44;;;;;;;8.65;6.70;;;;;;;4.08;71.23;95544.97;5051942;28;20469;-48
2020/12/14 08:38:20;;;;;;;10.23;6.95;;;;;;;4.21;71.12;95549.53;5052359;28;20502;-51
2020/12/14 08:40:58;;;;;;;9.73;7.03;;;;;;;4.24;71.25;95547.34;5052715;28;20052;-49
2020/12/14 08:43:26;;;;;;;9.30;7.18;;;;;;;4.25;70.65;95544.34;5052459;28;20053;-47
2020/12/14 08:46:09;;;;;;;15.57;7.82;;;;;;;4.31;70.43;95543.16;5050836;28;20049;-48
2020/12/14 08:48:48;;;;;;;10.10;7.53;;;;;;;4.35;70.92;95544.13;5052122;28;20045;-45
2020/12/14 08:51:19;;;;;;;9.15;6.90;;;;;;;4.39;70.66;95547.81;5051283;28;20510;-45
2020/12/14 08:53:47;;;;;;;11.38;7.43;;;;;;;4.42;71.04;95549.88;5052247;28;20076;-47
2020/12/14 08:56:18;;;;;;;12.13;7.20;;;;;;;4.34;70.43;95526.47;5051590;28;20076;-48
2020/12/14 08:58:58;;;;;;;11.60;7.25;;;;;;;4.31;71.29;95545.03;5051907;28;20047;-45
2020/12/14 09:01:27;;;;;;;15.35;7.50;;;;;;;4.43;70.94;95546.09;5051522;28;20083;-46
2020/12/14 09:03:55;;;;;;;14.30;7.68;;;;;;;4.46;71.07;95547.41;5052042;28;20088;-51
2020/12/14 09:06:23;;;;;;;13.60;7.25;;;;;;;4.39;71.20;95547.03;5050320;28;20170;-46
2020/12/14 09:09:09;;;;;;;10.98;7.88;;;;;;;4.54;71.10;95553.91;5051911;28;20045;-47
2020/12/14 09:11:57;;;;;;;11.77;7.50;;;;;;;4.69;70.66;95553.56;5051877;28;20079;-49
2020/12/14 09:14:26;;;;;;;11.13;7.05;;;;;;;4.58;70.94;95560.25;5050615;28;20091;-48
2020/12/14 09:16:58;;;;;;;11.23;7.47;;;;;;;4.55;70.75;95531.38;5050172;28;20080;-47
2020/12/14 09:19:27;;;;;;;12.07;7.32;;;;;;;4.72;70.34;95569.03;5051956;28;20053;-44
2020/12/14 09:21:54;;;;;;;11.65;7.40;;;;;;;4.85;69.42;95573.56;5051634;28;20049;-44
2020/12/14 09:24:25;;;;;;;10.00;6.78;;;;;;;4.83;69.80;95573.06;5051904;28;20106;-48
2020/12/14 09:26:54;;;;;;;9.65;7.35;;;;;;;4.88;69.93;95577.53;5051287;28;20114;-50
2020/12/14 09:29:20;;;;;;;10.52;7.32;;;;;;;4.95;69.64;95577.09;5051468;28;20136;-47
2020/12/14 09:31:53;;;;;;;8.48;6.57;;;;;;;4.96;69.99;95570.63;5051657;28;20060;-46
2020/12/14 09:34:21;;;;;;;9.60;6.57;;;;;;;5.02;69.54;95580.13;5051572;28;20152;-46
2020/12/14 09:36:56;;;;;;;8.82;6.10;;;;;;;5.16;68.70;95573.59;5050707;28;20045;-48
2020/12/14 09:39:25;;;;;;;10.20;6.80;;;;;;;5.17;68.45;95571.72;5051526;28;20060;-47
2020/12/14 09:41:52;;;;;;;8.70;5.90;;;;;;;5.27;68.14;95566.09;5051231;28;20080;-51
2020/12/14 09:44:19;;;;;;;8.30;6.20;;;;;;;5.29;67.04;95549.69;5051490;28;20080;-48
2020/12/14 09:46:45;;;;;;;8.32;6.20;;;;;;;5.29;68.33;95565.78;5050666;28;20140;-47
2020/12/14 09:49:13;;;;;;;8.18;5.65;;;;;;;5.23;68.44;95556.28;5051709;28;20151;-48
2020/12/14 09:51:39;;;;;;;8.90;5.35;;;;;;;5.25;68.56;95556.78;5050581;28;20128;-47
2020/12/14 09:54:06;;;;;;;9.43;5.70;;;;;;;5.34;67.79;95555.72;5051800;28;20417;-46
2020/12/14 09:56:34;;;;;;;7.72;5.60;;;;;;;5.50;67.07;95558.81;5050594;28;20049;-46
2020/12/14 09:59:01;;;;;;;8.80;5.78;;;;;;;5.58;66.92;95559.94;5049920;28;20075;-46
2020/12/14 10:01:29;;;;;;;8.38;5.53;;;;;;;5.52;67.04;95555.81;5051484;28;20422;-50
2020/12/14 10:03:56;;;;;;;7.20;5.32;;;;;;;5.54;67.25;95546.34;5051241;28;20084;-49
2020/12/14 10:06:23;;;;;;;7.93;5.55;;;;;;;5.43;67.47;95528.13;5050669;28;20147;-48
2020/12/14 10:08:50;;;;;;;7.20;5.10;;;;;;;5.58;66.69;95541.16;5050952;28;20276;-46
2020/12/14 10:11:16;;;;;;;11.18;5.32;;;;;;;5.68;66.32;95545.44;5051315;28;20144;-47
2020/12/14 10:13:43;;;;;;;8.48;5.75;;;;;;;5.80;65.84;95543.75;5053220;28;20045;-45
2020/12/14 10:16:13;;;;;;;7.28;4.88;;;;;;;5.95;65.64;95550.66;5053208;28;20053;-46
2020/12/14 10:18:40;;;;;;;8.45;5.00;;;;;;;5.95;65.45;95539.13;5055157;28;20067;-44
2020/12/14 10:21:07;;;;;;;7.72;5.03;;;;;;;5.60;65.09;95550.47;5055202;28;20049;-47
2020/12/14 10:23:34;;;;;;;8.65;4.65;;;;;;;5.76;64.88;95547.41;5055122;28;20055;-46
2020/12/14 10:26:00;;;;;;;6.38;4.70;;;;;;;5.66;64.18;95550.34;5054812;28;20049;-47
2020/12/14 10:28:27;;;;;;;8.30;4.60;;;;;;;5.70;65.59;95554.78;5054952;28;20498;-47
2020/12/14 10:30:54;;;;;;;6.95;4.68;;;;;;;5.95;65.19;95563.28;5054961;28;20057;-46
2020/12/14 10:33:22;;;;;;;9.00;4.78;;;;;;;6.09;64.89;95566.63;5054988;28;20078;-45
2020/12/14 10:35:49;;;;;;;7.22;4.50;;;;;;;6.02;64.72;95556.34;5054166;28;20045;-47
2020/12/14 10:38:16;;;;;;;7.43;4.40;;;;;;;6.06;64.22;95551.13;5054820;28;20462;-46
2020/12/14 10:40:43;;;;;;;7.43;4.07;;;;;;;6.17;63.50;95546.25;5054740;28;20064;-49
2020/12/14 10:43:10;;;;;;;5.40;3.83;;;;;;;6.10;62.67;95549.41;5054838;28;20068;-53
2020/12/14 10:45:37;;;;;;;6.28;4.10;;;;;;;6.02;63.47;95563.63;5053865;28;20057;-46
2020/12/14 10:48:04;;;;;;;8.18;4.82;;;;;;;6.01;64.90;95548.59;5054558;28;20470;-46
2020/12/14 10:50:30;;;;;;;5.57;3.85;;;;;;;6.30;63.75;95535.41;5054725;28;20057;-44
2020/12/14 10:52:57;;;;;;;6.85;4.38;;;;;;;6.68;60.81;95556.28;5054697;28;20426;-49
2020/12/14 10:55:24;;;;;;;8.48;3.70;;;;;;;6.30;61.65;95537.28;5053961;28;20061;-47
2020/12/14 10:57:51;;;;;;;6.80;4.20;;;;;;;6.64;62.67;95544.59;5052849;28;20330;-47
2020/12/14 11:00:20;;;;;;;8.50;4.30;;;;;;;6.80;61.16;95542.22;5054427;28;20048;-50
2020/12/14 11:02:47;;;;;;;5.55;3.80;;;;;;;6.85;61.64;95549.31;5054840;28;20061;-46
2020/12/14 11:05:13;;;;;;;7.32;4.55;;;;;;;6.74;63.77;95549.63;5054717;28;20107;-49
2020/12/14 11:07:40;;;;;;;7.80;4.28;;;;;;;6.97;61.67;95539.50;5053702;28;20524;-49
2020/12/14 11:10:09;;;;;;;9.20;5.65;;;;;;;7.21;59.54;95530.94;5054214;28;20423;-47
2020/12/14 11:12:36;;;;;;;6.65;4.32;;;;;;;7.38;61.70;95545.44;5054191;28;20045;-50
2020/12/14 11:15:07;;;;;;;7.13;5.03;;;;;;;7.59;60.97;95549.00;5054385;28;20464;-49
2020/12/14 11:17:53;;;;;;;6.93;5.18;;;;;;;7.94;60.96;95546.97;5053919;28;20045;-47
2020/12/14 11:20:21;;;;;;;10.93;4.63;;;;;;;8.37;59.20;95564.00;5054085;28;20322;-47
2020/12/14 11:23:07;;;;;;;7.18;4.75;;;;;;;8.86;58.77;95550.84;5053043;28;20064;-51
2020/12/14 11:25:34;;;;;;;7.32;4.82;;;;;;;9.27;56.56;95539.19;5052748;28;20061;-48
2020/12/14 11:28:01;;;;;;;11.15;5.20;;;;;;;9.61;54.41;95545.34;5053820;28;20448;-54
2020/12/14 11:30:28;;;;;;;8.27;4.20;;;;;;;10.02;53.92;95544.38;5054246;28;20075;-48
2020/12/14 11:32:54;;;;;;;7.18;4.50;;;;;;;10.47;54.01;95531.88;5053863;28;20128;-46
2020/12/14 11:35:21;;;;;;;8.52;5.03;;;;;;;10.80;52.37;95530.91;5052986;28;20076;-46
2020/12/14 11:37:47;;;;;;;8.75;4.88;;;;;;;10.43;50.58;95510.16;5053666;28;20129;-50
2020/12/14 11:40:14;;;;;;;8.50;4.82;;;;;;;10.37;51.77;95506.09;5053531;28;20055;-45
2020/12/14 11:42:40;;;;;;;7.13;4.45;;;;;;;10.97;52.19;95508.94;5053718;28;20053;-46
2020/12/14 11:45:09;;;;;;;8.15;4.60;;;;;;;11.26;50.17;95499.69;5053779;28;20170;-48